CheckWX is a tool to help pilots better visualize weather data.  It is not intended as a substitute for an official pre-flight weather briefing.

16:39:05 UTC

KGUC TAF
Gunnison-Crested Butte Regional Airport
Gunnison, Colorado, USA
KGUC 281738Z 2818/2918 VRB03KT P6SM FEW090 FEW250 FM282000 27010KT P6SM FEW100 SCT200 FM282300 35010G18KT P6SM FEW100 SCT200 FM290200 05008KT P6SM FEW090 FEW200

May-28@
18:00 UTC

May-28 @ 18:00 UTC

May-28@
20:00 UTC

May-28 @ 20:00 UTC

TAF KGUC 281738Z 2818/2918 VRB03KT P6SM FEW090 FEW250

Expired

Wind
  • Variable at 3 KTS
Cloud Levels
  • Few at 9,000' AGL
  • Few at 25,000' AGL

May-28@
20:00 UTC

May-28 @ 20:00 UTC

May-28@
23:00 UTC

May-28 @ 23:00 UTC

FM282000 27010KT P6SM FEW100 SCT200

Expired

Wind
  • 270° at 10 KTS
Cloud Levels
  • Few at 10,000' AGL
  • Scattered at 20,000' AGL

May-28@
23:00 UTC

May-28 @ 23:00 UTC

May-29@
02:00 UTC

May-29 @ 02:00 UTC

FM282300 35010G18KT P6SM FEW100 SCT200

Expired

Wind
  • 350° at 10 KTS
  • {Gusting to 18 KTS
Cloud Levels
  • Few at 10,000' AGL
  • Scattered at 20,000' AGL

May-29@
02:00 UTC

May-29 @ 02:00 UTC

May-29@
18:00 UTC

May-29 @ 18:00 UTC

FM290200 05008KT P6SM FEW090 FEW200

From

From Standard forecast or significant change

Wind
  • 050° at 8 KTS
Cloud Levels
  • Few at 9,000' AGL
  • Few at 20,000' AGL